AGROMETEOROLOŠKI PORTAL

vinorodna pokrajina

Temelj dobrega kmetovanja

Pregled podatkov za lokacijo Vidonci, meteorološka postaja 513658

Pregled senzorjev na lokaciji

ID Ime Zadnja
vrednost
Datum in čas
meritve
(lokalni čas)
Tip
senzorja
5901 Omočenost lista (1,5 m) (U) 0 U 4.10.2022 16:30 A730WET
5900 Padavine (mm) 0 mm 4.10.2022 16:30 Generic 0.2 mm
5903 Relativna zračna vlaga (2 m) (%RH) 44 %RH 4.10.2022 16:30 50YA
5902 Temperatura (2 m) (°C) 19,4 °C 4.10.2022 16:30 50YA

Pregled podatkov zadnjih 24 ur

Zap.
št.
Datum in čas
(lokalni čas)
Vidonci
Omočenost
lista
(1,5
m)
Padavine Relativna
zračna
vlaga
(2
m)
Temperatura
(2
m)
1 4.10.2022 16:30 0 0 44,1 19,4
2 4.10.2022 16:00 0 0 42,7 19,9
3 4.10.2022 15:30 0 0 42,4 19,8
4 4.10.2022 15:00 0 0 43,6 19,7
5 4.10.2022 14:30 0 0 43,2 19,7
6 4.10.2022 14:00 0 0 43,4 19,6
7 4.10.2022 13:30 0 0 45,6 19,7
8 4.10.2022 13:00 0 0 47,1 18,9
9 4.10.2022 12:30 0 0 46,8 18,6
10 4.10.2022 12:00 0 0 48,9 18,2
11 4.10.2022 11:30 0 0 52,2 17,5
12 4.10.2022 11:00 0 0 56,7 16,9
13 4.10.2022 10:30 0 0 57,2 16,3
14 4.10.2022 10:00 0 0 60,8 15,3
15 4.10.2022 09:30 0 0 71 13,1
16 4.10.2022 09:00 0 0 74,6 12,5
17 4.10.2022 08:30 10 0 76,4 11,5
18 4.10.2022 08:00 10 0 81,9 7,7
19 4.10.2022 07:30 10 0 86,1 6,4
20 4.10.2022 07:00 10 0 88,1 5,9
21 4.10.2022 06:30 10 0 84,8 6,5
22 4.10.2022 06:00 10 0 84,9 6,3
23 4.10.2022 05:30 10 0 85,2 6,2
24 4.10.2022 05:00 10 0 85,5 6,1
25 4.10.2022 04:30 10 0 86,8 6
26 4.10.2022 04:00 10 0 86,7 6,2
27 4.10.2022 03:30 10 0 85,4 6,5
28 4.10.2022 03:00 9 0 83,7 6,9
29 4.10.2022 02:30 2 0 78,4 7,8
30 4.10.2022 02:00 1 0 75,4 8
31 4.10.2022 01:30 0 0 69,8 9,2
32 4.10.2022 01:00 1 0 73,2 8,7
33 4.10.2022 00:30 0 0 73,7 8,8
34 4.10.2022 00:00 0 0 74,9 8,6
35 3.10.2022 23:30 0 0 69 9,7
36 3.10.2022 23:00 0 0 60,1 11,4
37 3.10.2022 22:30 0 0 57,6 11,9
38 3.10.2022 22:00 0 0 59 11,7
39 3.10.2022 21:30 0 0 61,7 11,5
40 3.10.2022 21:00 0 0 62,4 11,6
41 3.10.2022 20:30 0 0 62,1 11,9
42 3.10.2022 20:00 0 0 62,8 12
43 3.10.2022 19:30 0 0 62,1 12,4
44 3.10.2022 19:00 0 0 61,6 12,8
45 3.10.2022 18:30 0 0 59,1 14
46 3.10.2022 18:00 0 0 56,5 15,2